Tiempo atmosférico en la estación meteorológica de A Lama, Pontevedra (395 m.)



Fecha
DESCASC
Temp. máxima en grados centígrados (hora)
DESCASC
Temp. mínima en grados centígrados (hora)
DESCASC
Temp. media en grados centígrados
DESCASC
Racha de viento máxima en m/sg (hora)
DESCASC
Velocidad máxima media en intervalos de 10 minutos(hora)
DESCASC
Precipitaciones diarias en mm
DESCASC
Precipitaciones de 00:00 a 06:00 en mm
DESCASC
Precipitaciones de 06:00 a 12:00 en mm
DESCASC
Precipitaciones de 12:00 a 18:00 en mm
DESCASC
Precipitaciones de 18:00 a 24:00 en mm
DESCASC
11-12-2019 9.8 (13:20) 3.3 (09:40) 6.6 8.33 (16:30) 3.33 (03:30) 17.8 15.6 0 1.6 0.6
08-12-2019 13 (15:20) 3.9 (00:00) 8.5 3.89 (01:20) 2.22 (16:00) 10.4 2.2 7.2 1 0
07-12-2019 11.5 (15:00) 2.4 (00:00) 7 3.61 (06:00) 1.67 (05:50) 3.2 0 0 0.8 2.4
06-12-2019 13.6 (15:50) 4.3 (00:00) 9 4.17 (00:50) 1.94 (08:30) 0 0 0 0 0
05-12-2019 14.1 (14:20) 6 (00:00) 10.1 18.89 (06:40) 9.17 (06:40) 0 0 0 0 0
04-12-2019 12.6 (14:30) -0.9 (08:20) 5.9 11.39 (21:10) 6.67 (21:10) 0 0 0 0 0
03-12-2019 11.3 (15:30) -0.6 (-00:0) 5.4 11.67 (07:50) 6.94 (07:40) 0 0 0 0 0
02-12-2019 11.7 (14:10) 6.5 (00:00) 9.1 14.44 (08:10) 7.78 (20:50) 0 0 0 0 0
01-12-2019 12.2 (15:20) 7.5 (00:00) 9.8 11.67 (21:00) 5.56 (07:20) 14.4 14.2 0.2 0 0
30-11-2019 14 (00:10) 9 (00:00) 11.5 14.44 (03:10) 6.67 (06:10) 35 24.6 0.4 0.4 9.6
29-11-2019 16.3 (15:20) 8.5 (00:00) 12.4 7.78 (23:10) 3.61 (23:10) 5.6 0.2 0 0 5.4
28-11-2019 13.8 (17:30) 10.8 (08:50) 12.3 16.11 (16:50) 7.5 (16:20) 61.4 22 4.6 34.2 0.6
27-11-2019 11.5 (22:40) 10.1 (00:00) 10.8 12.22 (17:10) 5.83 (17:10) 61 12.4 3.4 18.6 26.6
26-11-2019 14.2 (04:10) 10.1 (00:00) 12.2 18.06 (16:20) 8.61 (16:20) 45.2 16.2 0.4 25.4 3.2
25-11-2019 13.2 (13:40) 10.9 (09:30) 12 10.28 (02:00) 5.28 (00:10) 10.4 4.2 3.4 0.2 2.6
24-11-2019 13.5 (20:40) 4.3 (00:00) 8.9 11.39 (20:40) 5.56 (20:40) 54 0 0.4 22.8 30.8
23-11-2019 11.2 (13:40) 5.4 (00:00) 8.3 9.17 (14:30) 4.44 (15:10) 6.2 3.6 1.8 0.4 0.4
22-11-2019 12.6 (09:10) 7.3 (00:00) 10 18.33 (19:00) 10.28 (17:20) 61 9.4 20.6 14.4 16.6
21-11-2019 11.1 (13:20) 3.9 (00:00) 7.5 7.5 (13:30) 3.61 (13:30) 15.6 10.2 3.8 1.6 0
20-11-2019 8 (13:00) 2 (08:10) 5 6.94 (13:30) 2.78 (14:40) 11.4 0 0 6.4 5
19-11-2019 8.7 (12:00) 1.6 (00:00) 5.1 5.56 (10:50) 2.5 (10:50) 14.4 0 0.8 10 3.6
18-11-2019 11.7 (14:30) 1.6 (00:00) 6.6 5 (13:50) 3.06 (13:50) 0.4 0.2 0.2 0 0
17-11-2019 10.8 (15:00) 6.1 (00:00) 8.5 7.22 (15:20) 3.89 (15:00) 8.8 1.4 5.8 0 1.6
16-11-2019 8.3 (13:20) 2 (00:00) 5.2 4.17 (13:10) 1.94 (13:40) 0.6 0 0 0.2 0.4
15-11-2019 7.9 (14:00) 1.6 (00:00) 4.8 11.67 (02:20) 6.67 (15:20) 6.8 0.4 0.4 3.2 2.8
14-11-2019 8.6 (00:00) 3.6 (00:00) 6.1 18.89 (13:10) 9.44 (13:10) 15.8 1.8 6.2 6.2 1.6
13-11-2019 14 (00:20) 8.6 (00:00) 11.3 13.89 (23:59) 7.22 (22:50) 19.6 10.6 0 0.2 8.8
12-11-2019 13.9 (23:50) 4.7 (00:00) 9.3 11.39 (19:40) 5.56 (23:10) 86.2 0 2.2 35.4 48.6

Gráficas

Temp. máximas Temp. mínimas Temp. medias Precipitaciones Rachas de viento máximas Velocidades máximas media en intervalos de 10 minutos

Datos horarios

Fecha y hora oficial Temperatura (ºC) Velocidad del viento (km/h) Dirección del viento Racha (km/h) Dirección de racha Precipitación (mm) Presión (hPa) Tendencia (hPa) Humedad (%)
2019-12-11 23:00:00 8.4 4 Sudoeste 14 Sudoeste 0 -- -- 97
2019-12-11 22:00:00 8.5 9 Oeste 18 Noroeste 0 -- -- 96
2019-12-11 21:00:00 8.2 5 Sudoeste 12 Sur 0 -- -- 96
2019-12-11 20:00:00 8.3 5 Oeste 15 Sudoeste 0 -- -- 96
2019-12-11 19:00:00 8.2 5 Sudoeste 19 Oeste 0.4 -- -- 97
2019-12-11 18:00:00 8.1 4 Sur 11 Sudoeste 0.2 -- -- 96
2019-12-11 17:00:00 8.3 5 Sudoeste 30 Oeste 0.8 -- -- 94
2019-12-11 16:00:00 8.4 10 Oeste 21 Oeste 0 -- -- 93
2019-12-11 15:00:00 8.5 7 Oeste 27 Oeste 0.6 -- -- 91
2019-12-11 14:00:00 8.9 6 Sudoeste 22 Oeste 0 -- -- 87
2019-12-11 13:00:00 9.5 7 Sudoeste 19 Sudoeste 0 -- -- 84
2019-12-11 12:00:00 8.4 6 Sudoeste 10 Sudoeste 0 -- -- 94
2019-12-11 11:00:00 5.3 0 Calma 3 Noroeste 0 -- -- 99
2019-12-11 10:00:00 3.4 0 Calma 3 Noroeste 0 -- -- 98
2019-12-11 09:00:00 4.3 0 Calma 6 Sur 0 -- -- 96
2019-12-11 08:00:00 5.9 0 Calma 8 Noroeste 0 -- -- 94
2019-12-11 07:00:00 7 4 Noroeste 13 Noroeste 0 -- -- 95
2019-12-11 06:00:00 7.3 3 Norte 23 Norte 0 -- -- 96
2019-12-11 05:00:00 7.6 7 Norte 19 Noroeste 0.6 -- -- 97
2019-12-11 04:00:00 8.1 3 Nordeste 28 Noroeste 2.4 -- -- 98
2019-12-11 03:00:00 9.1 5 Noroeste 13 Noroeste 3 -- -- 98
2019-12-11 02:00:00 9.1 6 Sur 19 Sudoeste 5.6 -- -- 98
2019-12-11 01:00:00 9.3 4 Oeste 14 Sur 4 -- -- 98
2019-12-11 00:00:00 9.1 5 Sudoeste 16 Sudoeste 0.4 -- -- 97
2019-12-10 23:00:00 9 4 Sudoeste 14 Sudoeste 0.2 -- -- 95
2019-12-10 22:00:00 8.7 4 Sudoeste 12 Sudeste 0.4 -- -- 92
2019-12-10 21:00:00 8.5 3 Sur 15 Sur 0.2 -- -- 91
2019-12-10 20:00:00 8.5 4 Sur 15 Sur 0.2 -- -- 86
2019-12-10 19:00:00 9 2 Oeste 6 Sur 0 -- -- 80
2019-12-10 18:00:00 9.9 5 Sudoeste 14 Oeste 0 -- -- 72
2019-12-10 17:00:00 10.8 6 Sudoeste 32 Sudoeste 0 -- -- 64
2019-12-10 16:00:00 11.8 5 Sudoeste 17 Sudoeste 0 -- -- 64
2019-12-10 15:00:00 11.8 4 Sudoeste 10 Oeste 0 -- -- 63
2019-12-10 14:00:00 11.5 6 Oeste 11 Oeste 0 -- -- 69
2019-12-10 13:00:00 11 3 Sudoeste 10 Sudoeste 0 -- -- 67
2019-12-10 12:00:00 9.7 2 Noroeste 6 Noroeste 0 -- -- 91
2019-12-10 11:00:00 5.2 4 Noroeste 10 Noroeste 0 -- -- 99
2019-12-10 10:00:00 2.7 6 Noroeste 10 Noroeste 0 -- -- 99
2019-12-10 09:00:00 2 3 Nordeste 9 Noroeste 0 -- -- 98
2019-12-10 08:00:00 2.5 3 Nordeste 11 Noroeste 0 -- -- 98
2019-12-10 07:00:00 2.8 4 Nordeste 13 Norte 0 -- -- 97
2019-12-10 06:00:00 1.5 4 Norte 10 Norte 0 -- -- 98
2019-12-10 05:00:00 2.1 4 Norte 9 Noroeste 0 -- -- 98
2019-12-10 04:00:00 2.2 3 Norte 10 Nordeste 0 -- -- 97
2019-12-10 03:00:00 2.1 4 Norte 12 Nordeste 0 -- -- 98
2019-12-10 02:00:00 2 2 Este 9 Nordeste 0 -- -- 100
2019-12-10 01:00:00 2.4 4 Noroeste 11 Noroeste 0 -- -- 99
2019-12-10 00:00:00 1.9 5 Norte 10 Norte 0 -- -- 98
2019-12-09 23:00:00 2 6 Norte 10 Noroeste 0 -- -- 97
2019-12-09 22:00:00 2.6 4 Norte 9 Norte 0 -- -- 96
2019-12-09 21:00:00 3.8 3 Norte 7 Noroeste 0 -- -- 95
2019-12-09 20:00:00 6.3 4 Nordeste 18 Este 0 -- -- 88
2019-12-09 19:00:00 8.8 9 Este 25 Este 0 -- -- 83
2019-12-09 18:00:00 9.4 13 Este 28 Este 0 -- -- 82
2019-12-09 17:00:00 10.3 14 Este 27 Este 0 -- -- 79
2019-12-09 16:00:00 11.1 9 Este 20 Este 0 -- -- 79
2019-12-09 15:00:00 10.8 3 Nordeste 14 Este 0 -- -- 82
2019-12-09 14:00:00 10.8 7 Este 18 Este 0 -- -- 80
2019-12-09 13:00:00 10.4 5 Este 14 Este 0 -- -- 81
2019-12-09 12:00:00 9.5 6 Este 18 Este 0 -- -- 85
2019-12-09 11:00:00 7.7 7 Este 14 Este 0 -- -- 95
2019-12-09 10:00:00 5.8 4 Nordeste 32 Este 0 -- -- 97
2019-12-09 09:00:00 3.9 6 Este 18 Este 0 -- -- 100
2019-12-09 08:00:00 2.5 2 Norte 7 Norte 0 -- -- 98
2019-12-09 07:00:00 3.9 4 Norte 16 Este 0 -- -- 98
2019-12-09 06:00:00 3.3 5 Nordeste 16 Este 0 -- -- 100
2019-12-09 05:00:00 0.7 4 Noroeste 9 Noroeste 0 -- -- 99
2019-12-09 04:00:00 1.6 3 Nordeste 12 Nordeste 0 -- -- 98
2019-12-09 03:00:00 2.1 2 Norte 19 Nordeste 0 -- -- 96
2019-12-09 02:00:00 3.8 7 Nordeste 15 Nordeste 0 -- -- 99
2019-12-09 01:00:00 2.8 4 Norte 11 Norte 0 -- -- 98
2019-12-09 00:00:00 3.9 4 Noroeste 13 Este 0 -- -- 98
2019-12-08 23:00:00 5.3 5 Nordeste 12 Nordeste 0 -- -- 98
2019-12-08 22:00:00 5.5 4 Nordeste 12 Nordeste 0 -- -- 98
2019-12-08 21:00:00 6.7 3 Norte 8 Nordeste 0 -- -- 98
2019-12-08 20:00:00 7.9 0 Calma 10 Norte 0 -- -- 97
2019-12-08 19:00:00 10 4 Nordeste 10 Nordeste 0 -- -- 98
2019-12-08 18:00:00 11.7 5 Norte 13 Noroeste 0 -- -- 99
2019-12-08 17:00:00 12.5 5 Noroeste 12 Noroeste 0 -- -- 99
2019-12-08 16:00:00 12.7 8 Noroeste 14 Noroeste 0 -- -- 100
2019-12-08 15:00:00 12.9 2 Sudoeste 5 Sudoeste 0.2 -- -- 100
2019-12-08 14:00:00 12.4 3 Oeste 6 Oeste 0.2 -- -- 100
2019-12-08 13:00:00 12.1 3 Oeste 6 Sudoeste 0.6 -- -- 100
2019-12-08 12:00:00 11.8 4 Oeste 9 Oeste 0.6 -- -- 100
2019-12-08 11:00:00 11.6 3 Oeste 6 Sudoeste 0.8 -- -- 100
2019-12-08 10:00:00 11.2 0 Calma 6 Norte 2 -- -- 100
2019-12-08 09:00:00 11 3 Oeste 7 Sudoeste 0.2 -- -- 100
2019-12-08 08:00:00 10.8 2 Noroeste 5 Oeste 2.8 -- -- 100
2019-12-08 07:00:00 10.9 3 Oeste 12 Sudoeste 0.8 -- -- 100
2019-12-08 06:00:00 10.7 4 Sudoeste 11 Sur 0.8 -- -- 100
2019-12-08 05:00:00 10.5 3 Sudoeste 13 Sudoeste 0.4 -- -- 100
2019-12-08 04:00:00 10.7 6 Sudoeste 14 Sur 0 -- -- 100
2019-12-08 03:00:00 10.5 4 Sudoeste 13 Sudoeste 0.4 -- -- 100
2019-12-08 02:00:00 10.6 5 Sudoeste 14 Sudoeste 0.2 -- -- 99
2019-12-08 01:00:00 10.7 6 Sudoeste 14 Sur 0.4 -- -- 99
2019-12-08 00:00:00 10.8 4 Sudoeste 10 Sur 0.2 -- -- 99
2019-12-07 23:00:00 10.9 2 Oeste 9 Sudoeste 0.2 -- -- 99
2019-12-07 22:00:00 10.9 2 Sudoeste 5 Oeste 0.8 -- -- 99
2019-12-07 21:00:00 10.8 0 Calma 4 Oeste 0.8 -- -- 99
2019-12-07 20:00:00 11 0 Calma 7 Sur 0.2 -- -- 99
2019-12-07 19:00:00 11 3 Sur 10 Sur 0.2 -- -- 98
2019-12-07 18:00:00 11 0 Calma 9 Oeste 0.4 -- -- 98
2019-12-07 17:00:00 11.1 4 Sudoeste 9 Sudoeste 0.4 -- -- 97
2019-12-07 16:00:00 11.4 3 Oeste 8 Oeste 0 -- -- 96
2019-12-07 15:00:00 11.5 4 Sudoeste 11 Sudoeste 0 -- -- 94
2019-12-07 14:00:00 11.2 4 Oeste 10 Oeste 0 -- -- 93
2019-12-07 13:00:00 10.8 0 Calma 8 Oeste 0 -- -- 91
2019-12-07 12:00:00 9.6 3 Noroeste 4 Noroeste 0 -- -- 96
2019-12-07 11:00:00 7.2 0 Calma 5 Noroeste 0 -- -- 100
2019-12-07 10:00:00 5.4 2 Este 7 Noroeste 0 -- -- 100
2019-12-07 09:00:00 3.8 0 Calma 9 Nordeste 0 -- -- 100
2019-12-07 08:00:00 3.2 2 Norte 5 Noroeste 0 -- -- 99
2019-12-07 07:00:00 3.4 3 Noroeste 6 Sur 0 -- -- 99
2019-12-07 06:00:00 3.7 6 Norte 13 Norte 0 -- -- 100
2019-12-07 05:00:00 2.9 3 Norte 11 Norte 0 -- -- 98
2019-12-07 04:00:00 2.8 4 Norte 12 Noroeste 0 -- -- 99
2019-12-07 03:00:00 2.5 3 Norte 8 Noroeste 0 -- -- 99
2019-12-07 02:00:00 3.5 0 Calma 10 Norte 0 -- -- 98
2019-12-07 01:00:00 4 4 Norte 9 Noroeste 0 -- -- 98
2019-12-07 00:00:00 4.4 3 Norte 12 Nordeste 0 -- -- 97
2019-12-06 23:00:00 4.6 5 Noroeste 9 Noroeste 0 -- -- 97
2019-12-06 22:00:00 5 0 Calma 7 Noroeste 0 -- -- 97
2019-12-06 21:00:00 5.8 3 Norte 9 Norte 0 -- -- 96
2019-12-06 20:00:00 6.7 5 Norte 9 Norte 0 -- -- 95
2019-12-06 19:00:00 7.7 3 Norte 6 Noroeste 0 -- -- 90
2019-12-06 18:00:00 10.3 0 Calma 10 Noroeste 0 -- -- 85
2019-12-06 17:00:00 12.3 4 Oeste 10 Noroeste 0 -- -- 74
2019-12-06 16:00:00 13.4 5 Oeste 12 Sudoeste 0 -- -- 70
2019-12-06 15:00:00 13.3 4 Oeste 11 Sudoeste 0 -- -- 72
2019-12-06 14:00:00 12.3 3 Sudoeste 12 Oeste 0 -- -- 78
2019-12-06 13:00:00 11.1 3 Sudoeste 10 Oeste 0 -- -- 81
2019-12-06 12:00:00 9.5 0 Calma 3 Este 0 -- -- 91
2019-12-06 11:00:00 7.4 0 Calma 7 Norte 0 -- -- 97
2019-12-06 10:00:00 5.1 3 Norte 10 Norte 0 -- -- 97
2019-12-06 09:00:00 4.5 5 Noroeste 11 Norte 0 -- -- 95
2019-12-06 08:00:00 5.2 3 Norte 12 Nordeste 0 -- -- 94
2019-12-06 07:00:00 5.7 4 Norte 14 Este 0 -- -- 93
2019-12-06 06:00:00 6.3 4 Norte 13 Este 0 -- -- 96
2019-12-06 05:00:00 5.8 0 Calma 11 Noroeste 0 -- -- 96
2019-12-06 04:00:00 5.3 3 Norte 8 Noroeste 0 -- -- 95
2019-12-06 03:00:00 4.9 5 Norte 9 Norte 0 -- -- 93
2019-12-06 02:00:00 5 3 Noroeste 12 Norte 0 -- -- 96
2019-12-06 01:00:00 5.3 4 Norte 15 Nordeste 0 -- -- 95
2019-12-06 00:00:00 6.1 5 Norte 13 Este 0 -- -- 93
2019-12-05 23:00:00 8.4 3 Nordeste 19 Este 0 -- -- 84
2019-12-05 22:00:00 9.8 10 Este 22 Este 0 -- -- 83
2019-12-05 21:00:00 9.7 8 Este 17 Sudeste 0 -- -- 83
2019-12-05 20:00:00 8.8 4 Este 14 Nordeste 0 -- -- 83
2019-12-05 19:00:00 10.4 7 Nordeste 17 Nordeste 0 -- -- 78
2019-12-05 18:00:00 11.7 3 Nordeste 25 Sudeste 0 -- -- 74
2019-12-05 17:00:00 13 8 Este 19 Este 0 -- -- 70
2019-12-05 16:00:00 13.9 7 Nordeste 22 Este 0 -- -- 64
2019-12-05 15:00:00 13.7 8 Nordeste 31 Este 0 -- -- 65
2019-12-05 14:00:00 13.7 12 Este 27 Este 0 -- -- 64
2019-12-05 13:00:00 12.5 12 Este 24 Este 0 -- -- 67
2019-12-05 12:00:00 11.3 12 Este 32 Sudeste 0 -- -- 71
2019-12-05 11:00:00 9.9 17 Sudeste 35 Nordeste 0 -- -- 74
2019-12-05 10:00:00 8.9 8 Norte 26 Nordeste 0 -- -- 77
2019-12-05 09:00:00 7.9 9 Este 47 Este 0 -- -- 79
2019-12-05 08:00:00 8 24 Este 48 Este 0 -- -- 76
2019-12-05 07:00:00 9 24 Este 68 Este 0 -- -- 70
2019-12-05 06:00:00 8.2 22 Este 44 Este 0 -- -- 74
2019-12-05 05:00:00 8.1 12 Nordeste 30 Este 0 -- -- 76
2019-12-05 04:00:00 8.2 23 Este 37 Este 0 -- -- 71
2019-12-05 03:00:00 7.9 8 Nordeste 53 Este 0 -- -- 69
2019-12-05 02:00:00 8.4 13 Nordeste 37 Nordeste 0 -- -- 64
2019-12-05 01:00:00 8.1 11 Nordeste 37 Este 0 -- -- 58
2019-12-05 00:00:00 7.6 7 Nordeste 32 Este 0 -- -- 61
2019-12-04 23:00:00 7.9 18 Este 38 Este 0 -- -- 57
2019-12-04 22:00:00 7.8 19 Este 41 Este 0 -- -- 55
2019-12-04 21:00:00 7.6 12 Este 32 Este 0 -- -- 64
2019-12-04 20:00:00 7.3 14 Este 30 Este 0 -- -- 67
2019-12-04 19:00:00 7.9 4 Norte 19 Nordeste 0 -- -- 66
2019-12-04 18:00:00 9.6 6 Nordeste 18 Nordeste 0 -- -- 66
2019-12-04 17:00:00 11.2 5 Nordeste 13 Nordeste 0 -- -- 65
2019-12-04 16:00:00 12.3 4 Este 13 Este 0 -- -- 57
2019-12-04 15:00:00 12.4 4 Sudeste 13 Sur 0 -- -- 54
2019-12-04 14:00:00 12.1 5 Sudoeste 11 Sudoeste 0 -- -- 57
2019-12-04 13:00:00 10.2 6 Oeste 13 Oeste 0 -- -- 65
2019-12-04 12:00:00 10.3 6 Este 23 Este 0 -- -- 62
2019-12-04 11:00:00 7.5 9 Este 23 Este 0 -- -- 71
2019-12-04 10:00:00 3.6 8 Nordeste 22 Este 0 -- -- 86
2019-12-04 09:00:00 0.7 6 Nordeste 18 Este 0 -- -- 94
2019-12-04 08:00:00 0.1 6 Norte 15 Este 0 -- -- 96
2019-12-04 07:00:00 0.3 4 Norte 18 Este 0 -- -- 90
2019-12-04 06:00:00 2.2 5 Nordeste 24 Este 0 -- -- 82
2019-12-04 05:00:00 3.4 14 Este 27 Nordeste 0 -- -- 82
2019-12-04 04:00:00 0 4 Nordeste 11 Nordeste 0 -- -- 97
2019-12-04 03:00:00 -0.3 3 Norte 16 Este 0 -- -- 97
2019-12-04 02:00:00 -0.1 3 Noroeste 13 Este 0 -- -- 97
2019-12-04 01:00:00 -0.3 4 Norte 9 Norte 0 -- -- 97
2019-12-04 00:00:00 -0.6 3 Norte 7 Noroeste 0 -- -- 96
2019-12-03 23:00:00 0.5 0 Calma 9 Noroeste 0 -- -- 95
2019-12-03 22:00:00 1.1 3 Noroeste 9 Este 0 -- -- 93
2019-12-03 21:00:00 2 3 Nordeste 11 Norte 0 -- -- 88
2019-12-03 20:00:00 2.2 2 Norte 7 Norte 0 -- -- 86
2019-12-03 19:00:00 4.9 3 Nordeste 16 Este 0 -- -- 73
2019-12-03 18:00:00 7.4 3 Nordeste 17 Este 0 -- -- 62
2019-12-03 17:00:00 9.8 4 Nordeste 12 Este 0 -- -- 51
2019-12-03 16:00:00 10.9 8 Este 19 Este 0 -- -- 47
2019-12-03 15:00:00 10.9 10 Este 24 Este 0 -- -- 47
2019-12-03 14:00:00 9.9 14 Este 29 Este 0 -- -- 53
2019-12-03 13:00:00 9.2 19 Este 33 Este 0 -- -- 55
2019-12-03 12:00:00 8.1 20 Este 37 Este 0 -- -- 59
2019-12-03 11:00:00 6.9 20 Este 36 Este 0 -- -- 64
2019-12-03 10:00:00 5.1 24 Este 41 Este 0 -- -- 73
2019-12-03 09:00:00 4.2 24 Este 41 Este 0 -- -- 77
2019-12-03 08:00:00 4.5 23 Este 42 Este 0 -- -- 73
2019-12-03 07:00:00 5.2 22 Este 40 Este 0 -- -- 71
2019-12-03 06:00:00 5.6 19 Este 40 Este 0 -- -- 69
2019-12-03 05:00:00 5.9 22 Este 37 Este 0 -- -- 70
2019-12-03 04:00:00 6.4 20 Este 32 Este 0 -- -- 67
2019-12-03 03:00:00 6.6 11 Este 39 Sudeste 0 -- -- 67
2019-12-03 02:00:00 6.7 15 Este 30 Este 0 -- -- 68
2019-12-03 01:00:00 6.8 15 Este 38 Este 0 -- -- 69
2019-12-03 00:00:00 7.2 8 Este 23 Oeste 0 -- -- 70
2019-12-02 23:00:00 6.6 8 Sudeste 37 Este 0 -- -- 75
2019-12-02 22:00:00 7.4 17 Este 45 Nordeste 0 -- -- 73
2019-12-02 21:00:00 7 26 Este 51 Este 0 -- -- 77
2019-12-02 20:00:00 7.2 24 Este 43 Este 0 -- -- 77
2019-12-02 19:00:00 7.6 22 Este 37 Este 0 -- -- 76
2019-12-02 18:00:00 8.8 20 Este 40 Este 0 -- -- 71
2019-12-02 17:00:00 10 17 Este 39 Este 0 -- -- 67
2019-12-02 16:00:00 11 15 Este 38 Este 0 -- -- 64
2019-12-02 15:00:00 11.6 12 Este 36 Este 0 -- -- 62
2019-12-02 14:00:00 11.5 6 Norte 42 Este 0 -- -- 65
2019-12-02 13:00:00 11.3 14 Nordeste 38 Nordeste 0 -- -- 66
2019-12-02 12:00:00 11.1 12 Nordeste 38 Este 0 -- -- 69
2019-12-02 11:00:00 10.6 12 Nordeste 29 Este 0 -- -- 74
2019-12-02 10:00:00 9.4 15 Este 43 Nordeste 0 -- -- 77
2019-12-02 09:00:00 8.4 19 Este 52 Este 0 -- -- 80
2019-12-02 08:00:00 8.1 19 Este 37 Este 0 -- -- 81
2019-12-02 07:00:00 7.8 15 Este 42 Este 0 -- -- 81
2019-12-02 06:00:00 7.9 25 Este 49 Este 0 -- -- 82
2019-12-02 05:00:00 7.5 21 Este 41 Este 0 -- -- 82
2019-12-02 04:00:00 7.3 18 Nordeste 36 Nordeste 0 -- -- 85
2019-12-02 03:00:00 7.6 11 Nordeste 30 Este 0 -- -- 80
2019-12-02 02:00:00 7.4 11 Norte 37 Norte 0 -- -- 80
2019-12-02 01:00:00 7.5 9 Nordeste 36 Nordeste 0 -- -- 78
2019-12-02 00:00:00 7.8 9 Nordeste 40 Este 0 -- -- 77
2019-12-01 23:00:00 7.7 10 Nordeste 32 Este 0 -- -- 80
2019-12-01 22:00:00 7.7 10 Nordeste 38 Este 0 -- -- 77
2019-12-01 21:00:00 7.8 10 Norte 42 Nordeste 0 -- -- 79
2019-12-01 20:00:00 8.5 10 Norte 30 Norte 0 -- -- 84
2019-12-01 19:00:00 9.2 8 Norte 23 Noroeste 0 -- -- 84
2019-12-01 18:00:00 9.9 8 Norte 24 Norte 0 -- -- 82
2019-12-01 17:00:00 10.8 7 Nordeste 31 Noroeste 0 -- -- 77
2019-12-01 16:00:00 11.5 9 Norte 26 Nordeste 0 -- -- 73
2019-12-01 15:00:00 11.8 8 Nordeste 38 Este 0 -- -- 75
2019-12-01 14:00:00 10.9 8 Nordeste 33 Este 0 -- -- 79
2019-12-01 13:00:00 11.2 9 Norte 28 Noroeste 0 -- -- 77
2019-12-01 12:00:00 10.7 9 Norte 27 Nordeste 0 -- -- 79
2019-12-01 11:00:00 9.5 13 Este 33 Este 0 -- -- 87
2019-12-01 10:00:00 8.1 6 Norte 20 Este 0 -- -- 93
2019-12-01 09:00:00 7.9 11 Este 37 Este 0 -- -- 96
2019-12-01 08:00:00 7.5 18 Este 35 Este 0 -- -- 97
2019-12-01 07:00:00 7.9 13 Este 26 Este 0.2 -- -- 98
2019-12-01 06:00:00 8.5 8 Este 17 Este 0.6 -- -- 99
2019-12-01 05:00:00 8.5 4 Sudeste 14 Sur 1.6 -- -- 99
2019-12-01 04:00:00 8.7 6 Sur 21 Sudeste 1 -- -- 98
2019-12-01 03:00:00 8.4 6 Sur 16 Sur 0.2 -- -- 98
2019-12-01 02:00:00 8.5 7 Sur 26 Sudoeste 3 -- -- 98
2019-12-01 01:00:00 8.8 10 Sudoeste 36 Sudoeste 7.8 -- -- 98
2019-12-01 00:00:00 9 12 Sur 32 Sur 3.4 -- -- 97
2019-11-30 23:00:00 9.1 9 Sur 27 Sur 0.4 -- -- 98
2019-11-30 22:00:00 9.2 10 Sur 22 Sudoeste 1 -- -- 97
2019-11-30 21:00:00 9.4 6 Sudoeste 28 Sudoeste 3.6 -- -- 96
2019-11-30 20:00:00 9.4 7 Sur 20 Sur 0 -- -- 95
2019-11-30 19:00:00 9.8 9 Sur 24 Sudoeste 1.2 -- -- 94
2019-11-30 18:00:00 10.2 8 Sudoeste 31 Sudoeste 0.2 -- -- 91
2019-11-30 17:00:00 10.9 12 Sudoeste 36 Oeste 0.2 -- -- 87
2019-11-30 16:00:00 11.4 16 Sudoeste 40 Oeste 0 -- -- 82
2019-11-30 15:00:00 11.7 11 Oeste 32 Oeste 0 -- -- 81
2019-11-30 14:00:00 12.2 12 Oeste 36 Oeste 0 -- -- 75
2019-11-30 13:00:00 12.7 12 Oeste 26 Oeste 0 -- -- 79
2019-11-30 12:00:00 11.4 10 Oeste 22 Sudoeste 0 -- -- 88
2019-11-30 11:00:00 10.7 6 Oeste 17 Oeste 0 -- -- 88
2019-11-30 10:00:00 10.3 6 Oeste 22 Oeste 0 -- -- 87
2019-11-30 09:00:00 10.8 12 Oeste 33 Oeste 0.2 -- -- 90
2019-11-30 08:00:00 11.7 12 Oeste 33 Oeste 0 -- -- 96
2019-11-30 07:00:00 11.8 20 Oeste 40 Oeste 0.2 -- -- 99
2019-11-30 06:00:00 12.9 19 Oeste 45 Oeste 6.6 -- -- 99
2019-11-30 05:00:00 13.4 19 Sudoeste 48 Oeste 1.4 -- -- 100
2019-11-30 04:00:00 13.6 20 Oeste 52 Oeste 5.8 -- -- 99
2019-11-30 03:00:00 14 18 Sudoeste 49 Sudoeste 1.2 -- -- 99
2019-11-30 02:00:00 14 21 Sudoeste 47 Oeste 2.6 -- -- 99
2019-11-30 01:00:00 14 14 Sudoeste 35 Sudoeste 7 -- -- 99
2019-11-30 00:00:00 13.9 12 Sudoeste 28 Sudoeste 2.2 -- -- 99
2019-11-29 23:00:00 13.7 11 Sudoeste 27 Sudoeste 1.6 -- -- 99
2019-11-29 22:00:00 13.4 10 Sur 22 Sudoeste 1.6 -- -- 98
2019-11-29 21:00:00 13.2 6 Sur 14 Sur 0 -- -- 97
2019-11-29 20:00:00 12.9 3 Sur 9 Sur 0 -- -- 97
2019-11-29 19:00:00 13 0 Calma 4 Nordeste 0 -- -- 94
2019-11-29 18:00:00 13.4 2 Norte 15 Sudoeste 0 -- -- 90
2019-11-29 17:00:00 14.3 6 Sudoeste 16 Sudoeste 0 -- -- 85
2019-11-29 16:00:00 16 6 Sudoeste 15 Sudoeste 0 -- -- 74
2019-11-29 15:00:00 16.2 7 Sudoeste 15 Sudoeste 0 -- -- 78
2019-11-29 14:00:00 15.6 7 Sudoeste 20 Sudoeste 0 -- -- 82
2019-11-29 13:00:00 13.5 4 Sudoeste 13 Sudoeste 0 -- -- 97
2019-11-29 12:00:00 12.6 0 Calma 4 Sudoeste 0 -- -- 100
2019-11-29 11:00:00 10.9 0 Calma 6 Norte 0 -- -- 100
2019-11-29 10:00:00 9.4 4 Norte 9 Este 0 -- -- 100
2019-11-29 09:00:00 8.6 0 Calma 5 Nordeste 0 -- -- 100
2019-11-29 08:00:00 8.8 3 Noroeste 6 Nordeste 0 -- -- 100
2019-11-29 07:00:00 9 2 Noroeste 6 Norte 0 -- -- 100
2019-11-29 06:00:00 9.1 5 Este 11 Nordeste 0 -- -- 100
2019-11-29 05:00:00 9.2 3 Norte 5 Sudeste 0 -- -- 100
2019-11-29 04:00:00 9.8 0 Calma 7 Nordeste 0 -- -- 100
2019-11-29 03:00:00 10.5 0 Calma 3 Nordeste 0.2 -- -- 100
2019-11-29 02:00:00 11.4 0 Calma 2 Sudoeste 0 -- -- 100
2019-11-29 01:00:00 11.5 0 Calma 3 Sudoeste 0 -- -- 100
2019-11-29 00:00:00 11.7 0 Calma 6 Oeste 0 -- -- 100
2019-11-28 23:00:00 12.1 3 Oeste 6 Oeste 0 -- -- 100
2019-11-28 22:00:00 12.3 3 Sudoeste 8 Sudoeste 0 -- -- 100
2019-11-28 21:00:00 12.6 5 Oeste 14 Oeste 0 -- -- 100
2019-11-28 20:00:00 12.9 7 Oeste 24 Oeste 0 -- -- 100
2019-11-28 19:00:00 13.2 11 Sudoeste 36 Oeste 0.6 -- -- 100
2019-11-28 18:00:00 13.6 15 Oeste 43 Sudoeste 7 -- -- 100
2019-11-28 17:00:00 13.5 18 Sudoeste 58 Sudoeste 7.4 -- -- 100
2019-11-28 16:00:00 13.2 26 Sudoeste 55 Sudoeste 7.4 -- -- 100
2019-11-28 15:00:00 12 14 Sur 35 Sudoeste 6.6 -- -- 100
2019-11-28 14:00:00 11.5 15 Sur 39 Sudoeste 4.4 -- -- 100
2019-11-28 13:00:00 11.5 13 Sudoeste 36 Sudoeste 1.4 -- -- 100
2019-11-28 12:00:00 11.7 9 Sur 22 Sudoeste 0 -- -- 100
2019-11-28 11:00:00 11.2 9 Sudoeste 21 Oeste 0.4 -- -- 100
2019-11-28 10:00:00 11 8 Sudoeste 15 Sudoeste 0.2 -- -- 100
2019-11-28 09:00:00 10.8 7 Oeste 13 Oeste 0.8 -- -- 100
2019-11-28 08:00:00 11 8 Oeste 15 Sudoeste 0.6 -- -- 100
2019-11-28 07:00:00 11.7 6 Oeste 19 Oeste 2.6 -- -- 100
2019-11-28 06:00:00 11.8 6 Oeste 24 Oeste 1.6 -- -- 100
2019-11-28 05:00:00 12.5 10 Oeste 32 Sudoeste 8.6 -- -- 100
2019-11-28 04:00:00 13 13 Sudoeste 34 Sudoeste 4.2 -- -- 100
2019-11-28 03:00:00 12.1 7 Sudoeste 17 Sudoeste 3.8 -- -- 100
2019-11-28 02:00:00 11.9 5 Sudoeste 24 Sudoeste 2.2 -- -- 100
2019-11-28 01:00:00 11.7 9 Sudoeste 21 Sudoeste 1.6 -- -- 100
2019-11-28 00:00:00 11.5 10 Sur 25 Sudoeste 2.2 -- -- 100
2019-11-27 23:00:00 11.5 12 Oeste 28 Oeste 5.2 -- -- 100
2019-11-27 22:00:00 11.3 10 Oeste 33 Sudoeste 8.8 -- -- 100
2019-11-27 21:00:00 10.9 10 Oeste 27 Oeste 7.2 -- -- 100
2019-11-27 20:00:00 10.7 9 Sudoeste 30 Sudoeste 1.2 -- -- 100
2019-11-27 19:00:00 10.5 12 Sudoeste 32 Sudoeste 2 -- -- 100
2019-11-27 18:00:00 10.2 11 Sudoeste 44 Sudoeste 2.6 -- -- 99
2019-11-27 17:00:00 10.6 17 Oeste 40 Oeste 7.8 -- -- 99
2019-11-27 16:00:00 11 9 Oeste 31 Oeste 0.2 -- -- 99
2019-11-27 15:00:00 10.7 12 Sudoeste 28 Oeste 0.2 -- -- 100
2019-11-27 14:00:00 10.4 14 Oeste 37 Oeste 4.6 -- -- 99
2019-11-27 06:00:00 -- -- -- -- -- -- -- -- --
2019-11-27 05:00:00 -- -- -- -- -- -- -- -- --
2019-11-27 04:00:00 10.5 12 Oeste 33 Sudoeste 2.8 -- -- 99
2019-11-27 03:00:00 10.6 11 Oeste 38 Oeste 5.4 -- -- 98
2019-11-27 02:00:00 10.5 12 Sudoeste 27 Sudoeste 2 -- -- 98
2019-11-27 01:00:00 10.3 12 Sudoeste 31 Oeste 1.4 -- -- 98
2019-11-27 00:00:00 10.1 11 Sudoeste 35 Sudoeste 0.6 -- -- 96
2019-11-26 23:00:00 10.4 13 Sudoeste 32 Sudoeste 1.8 -- -- 95
2019-11-26 22:00:00 10.4 11 Sudoeste 29 Sudoeste 0 -- -- 92
2019-11-26 21:00:00 10.7 12 Sudoeste 28 Oeste 0.2 -- -- 93
2019-11-26 20:00:00 10.8 15 Oeste 38 Oeste 0.6 -- -- 96
2019-11-26 19:00:00 10.6 10 Sudoeste 44 Sudoeste 0 -- -- 96
2019-11-26 18:00:00 10.9 18 Sudoeste 60 Sudoeste 4.8 -- -- 95
2019-11-26 17:00:00 12.6 24 Sudoeste 65 Sudoeste 2.6 -- -- 93
2019-11-26 16:00:00 13.4 26 Sudoeste 56 Sudoeste 0 -- -- 95
2019-11-26 15:00:00 12.6 22 Sudoeste 50 Sudoeste 12.4 -- -- 98
2019-11-26 14:00:00 12.5 20 Sudoeste 55 Sudoeste 5.4 -- -- 96
2019-11-26 13:00:00 13.6 15 Sur 37 Sudoeste 0.2 -- -- 92
2019-11-26 12:00:00 14.1 19 Sur 38 Sudoeste 0 -- -- 94
2019-11-26 11:00:00 13.3 14 Sur 36 Sudoeste 0 -- -- 97
2019-11-26 10:00:00 12.9 13 Sudoeste 29 Sudoeste 0 -- -- 98
2019-11-26 09:00:00 12.7 10 Sur 33 Sudoeste 0 -- -- 98
2019-11-26 08:00:00 12.9 12 Sudoeste 41 Oeste 0 -- -- 99
2019-11-26 07:00:00 13.1 13 Sudoeste 35 Oeste 0.4 -- -- 100
2019-11-26 06:00:00 13.4 15 Sudoeste 36 Sudoeste 0.4 -- -- 100
2019-11-26 05:00:00 13.7 15 Oeste 44 Sudoeste 2.6 -- -- 100
2019-11-26 04:00:00 14.1 13 Sudoeste 34 Sudoeste 5.2 -- -- 100
2019-11-26 03:00:00 13.5 15 Sudoeste 31 Sudoeste 5.6 -- -- 100
2019-11-26 02:00:00 12.9 12 Sudoeste 35 Sur 2.2 -- -- 99
2019-11-26 01:00:00 12.9 14 Sur 37 Sur 0.2 -- -- 99
2019-11-26 00:00:00 12.5 10 Sur 30 Sur 0.4 -- -- 99
2019-11-25 23:00:00 12.3 9 Sur 28 Sudoeste 1.6 -- -- 98
2019-11-25 22:00:00 12.1 7 Sur 22 Sur 0.4 -- -- 98
2019-11-25 21:00:00 12.1 6 Sur 24 Sur 0 -- -- 98
2019-11-25 20:00:00 12 10 Sudoeste 25 Sudoeste 0.2 -- -- 98
2019-11-25 19:00:00 12 12 Sudoeste 30 Sur 0 -- -- 97
2019-11-25 18:00:00 12.1 12 Sur 27 Sudoeste 0.2 -- -- 96
2019-11-25 17:00:00 12.6 6 Sur 19 Sudoeste 0 -- -- 93
2019-11-25 16:00:00 12.8 8 Sudoeste 18 Oeste 0 -- -- 94
2019-11-25 15:00:00 12.4 7 Oeste 19 Sudoeste 0 -- -- 90
2019-11-25 14:00:00 13 8 Sudoeste 27 Sudoeste 0 -- -- 91
2019-11-25 13:00:00 12.8 6 Sur 20 Sur 0 -- -- 97
2019-11-25 12:00:00 11.6 8 Sur 18 Sur 0 -- -- 99
2019-11-25 11:00:00 11.1 4 Sudoeste 14 Sudoeste 0 -- -- 99
2019-11-25 10:00:00 10.9 4 Sur 18 Oeste 0 -- -- 99
2019-11-25 09:00:00 11 9 Oeste 28 Oeste 0.4 -- -- 100
2019-11-25 08:00:00 11.8 13 Oeste 32 Oeste 3 -- -- 100
2019-11-25 07:00:00 11.8 9 Sudoeste 28 Oeste 0 -- -- 100
2019-11-25 06:00:00 11.5 7 Sudoeste 27 Sudoeste 0 -- -- 100
2019-11-25 05:00:00 11.5 8 Sudoeste 31 Sudoeste 0 -- -- 100
2019-11-25 04:00:00 11.7 12 Sudoeste 30 Sudoeste 0.8 -- -- 100
2019-11-25 03:00:00 12.2 18 Oeste 36 Oeste 2.4 -- -- 100
2019-11-25 02:00:00 12.4 14 Sudoeste 37 Sudoeste 0.4 -- -- 100
2019-11-25 01:00:00 12.3 9 Sudoeste 36 Oeste 0.6 -- -- 100
2019-11-25 00:00:00 12.9 18 Oeste 39 Sudoeste 1 -- -- 100
2019-11-24 23:00:00 13.2 15 Oeste 39 Sudoeste 1.6 -- -- 100
2019-11-24 22:00:00 13.3 13 Oeste 33 Oeste 0.4 -- -- 100
2019-11-24 21:00:00 13.4 16 Oeste 41 Oeste 7.2 -- -- 100
2019-11-24 20:00:00 13.2 18 Sudoeste 35 Sudoeste 10.6 -- -- 100
2019-11-24 19:00:00 12.6 9 Sudoeste 27 Oeste 10 -- -- 100
2019-11-24 18:00:00 12 12 Sudoeste 33 Sudoeste 9.2 -- -- 100
2019-11-24 17:00:00 11 14 Sur 31 Sur 5.4 -- -- 99
2019-11-24 16:00:00 10.7 14 Sur 33 Sudoeste 2 -- -- 99
2019-11-24 15:00:00 10.3 12 Sur 29 Sudoeste 2.2 -- -- 99
2019-11-24 14:00:00 9.7 10 Sudoeste 25 Sudoeste 3 -- -- 98
2019-11-24 13:00:00 9.6 8 Sudoeste 31 Sudoeste 1 -- -- 98
2019-11-24 12:00:00 9.4 10 Sur 31 Sudoeste 0.4 -- -- 98
2019-11-24 11:00:00 9.3 6 Sur 19 Sur 0 -- -- 98
2019-11-24 10:00:00 8.8 8 Sur 20 Sur 0 -- -- 99
2019-11-24 09:00:00 8.1 6 Sur 15 Sur 0 -- -- 100
2019-11-24 08:00:00 7.6 3 Oeste 13 Sudoeste 0 -- -- 100
2019-11-24 07:00:00 7.5 5 Sudoeste 16 Sudoeste 0 -- -- 100
2019-11-24 06:00:00 6.8 0 Calma 6 Noroeste 0 -- -- 100
2019-11-24 05:00:00 6.1 3 Sudoeste 5 Sudoeste 0 -- -- 100
2019-11-24 04:00:00 5.2 0 Calma 0 Calma 0 -- -- 100
2019-11-24 03:00:00 4.7 0 Calma -- -- 0 -- -- 100
2019-11-24 02:00:00 4.4 0 Calma -- -- 0 -- -- 99
2019-11-24 01:00:00 5.4 0 Calma 4 Noroeste 0 -- -- 99
2019-11-24 00:00:00 5.8 3 Noroeste 8 Noroeste 0 -- -- 100
2019-11-23 23:00:00 5.5 0 Calma 4 Noroeste 0 -- -- 99
2019-11-23 22:00:00 6.4 0 Calma 2 Este 0 -- -- 97
2019-11-23 21:00:00 7.1 0 Calma 11 Noroeste 0 -- -- 96
2019-11-23 20:00:00 8.4 2 Oeste 9 Oeste 0 -- -- 94
2019-11-23 19:00:00 9 3 Sudoeste 15 Noroeste 0.4 -- -- 93
2019-11-23 18:00:00 9.7 3 Oeste 24 Noroeste 0 -- -- 86
2019-11-23 17:00:00 10.4 8 Noroeste 24 Noroeste 0 -- -- 85
2019-11-23 16:00:00 10.5 15 Noroeste 29 Noroeste 0 -- -- 87
2019-11-23 15:00:00 10.8 10 Noroeste 33 Oeste 0.4 -- -- 85
2019-11-23 14:00:00 11 13 Noroeste 26 Noroeste 0 -- -- 86
2019-11-23 13:00:00 10.2 9 Oeste 22 Noroeste 0 -- -- 88
2019-11-23 12:00:00 9.6 9 Noroeste 20 Oeste 0 -- -- 95
2019-11-23 11:00:00 7.8 0 Calma 6 Sudoeste 0 -- -- 100
2019-11-23 10:00:00 6.1 0 Calma 4 Sudeste 0 -- -- 100
2019-11-23 09:00:00 5.7 0 Calma -- -- 1 -- -- 99
2019-11-23 08:00:00 5.7 0 Calma 3 Sur 0 -- -- 98
2019-11-23 07:00:00 6.1 0 Calma 13 Noroeste 0.8 -- -- 98
2019-11-23 06:00:00 5.7 0 Calma 8 Norte 0 -- -- 96
2019-11-23 05:00:00 6.2 2 Norte 16 Noroeste 0.2 -- -- 94
2019-11-23 04:00:00 6.8 7 Noroeste 19 Noroeste 0 -- -- 95
2019-11-23 03:00:00 6.9 13 Noroeste 26 Oeste 0.4 -- -- 94
2019-11-23 02:00:00 7.2 14 Noroeste 31 Oeste 1 -- -- 96
2019-11-23 01:00:00 7.2 8 Oeste 27 Oeste 2 -- -- 97
2019-11-23 00:00:00 7.4 6 Noroeste 34 Oeste 0.4 -- -- 97
2019-11-22 23:00:00 7.4 18 Noroeste 47 Noroeste 2.4 -- -- 97
2019-11-22 22:00:00 7.8 32 Noroeste 59 Noroeste 5.8 -- -- 96
2019-11-22 21:00:00 8.4 24 Oeste 64 Oeste 1.6 -- -- 96
2019-11-22 20:00:00 8.9 27 Noroeste 57 Oeste 2.6 -- -- 97
2019-11-22 19:00:00 9.4 25 Oeste 66 Oeste 3.8 -- -- 97
2019-11-22 18:00:00 9.9 19 Oeste 63 Noroeste 0.2 -- -- 95
2019-11-22 17:00:00 10.4 30 Oeste 59 Oeste 2.8 -- -- 97
2019-11-22 16:00:00 10 15 Oeste 45 Sudoeste 7.6 -- -- 98
2019-11-22 15:00:00 10.4 16 Sudoeste 31 Sudoeste 2.6 -- -- 97
2019-11-22 14:00:00 10.7 11 Sudoeste 38 Oeste 0.6 -- -- 96
2019-11-22 13:00:00 10.1 15 Oeste 43 Oeste 0.6 -- -- 95
2019-11-22 12:00:00 10.8 15 Oeste 43 Oeste 1.8 -- -- 99
2019-11-22 11:00:00 10.7 27 Noroeste 61 Sudoeste 2.8 -- -- 98
2019-11-22 10:00:00 12.4 18 Sudoeste 55 Oeste 1.6 -- -- 99
2019-11-22 09:00:00 12.2 21 Sudoeste 51 Sudoeste 6.2 -- -- 100
2019-11-22 08:00:00 10.7 10 Sur 23 Sur 7.4 -- -- 99
2019-11-22 07:00:00 9.9 13 Sur 32 Sur 0.8 -- -- 98
2019-11-22 06:00:00 9.5 13 Sur 35 Sur 0.2 -- -- 97
2019-11-22 05:00:00 9.2 16 Sur 42 Sudeste 3.8 -- -- 97
2019-11-22 04:00:00 8.8 11 Sur 40 Sur 2.6 -- -- 96
2019-11-22 03:00:00 8.9 17 Sur 34 Sudeste 1.4 -- -- 96
2019-11-22 02:00:00 8.7 12 Sur 35 Sur 1.2 -- -- 96
2019-11-22 01:00:00 8.8 9 Sur 21 Sur 0.2 -- -- 95
2019-11-22 00:00:00 8.7 5 Sur 21 Sudoeste 0 -- -- 95
2019-11-21 23:00:00 8.6 7 Sur 18 Sudoeste 0 -- -- 94
2019-11-21 22:00:00 8.5 5 Sur 13 Sur 0 -- -- 93
2019-11-21 21:00:00 8.2 5 Sur 12 Sudoeste 0 -- -- 92
2019-11-21 20:00:00 8.3 5 Sur 13 Sudeste 0 -- -- 92
2019-11-21 19:00:00 8.5 4 Sur 10 Sur 0 -- -- 92
2019-11-21 18:00:00 9 2 Sur 14 Sudoeste 0 -- -- 88
2019-11-21 17:00:00 10.3 6 Sudoeste 21 Oeste 0 -- -- 85
2019-11-21 16:00:00 10.3 8 Oeste 24 Oeste 0 -- -- 85
2019-11-21 15:00:00 10.8 5 Sudoeste 19 Oeste 1.4 -- -- 91
2019-11-21 14:00:00 10.4 6 Oeste 27 Sudoeste 0 -- -- 91
2019-11-21 13:00:00 9.8 6 Oeste 15 Oeste 0.2 -- -- 99
2019-11-21 12:00:00 9.1 6 Sudoeste 13 Oeste 0 -- -- 100
2019-11-21 11:00:00 7.8 3 Oeste 8 Oeste 0 -- -- 100
2019-11-21 10:00:00 6 3 Noroeste 4 Noroeste 1.2 -- -- 100
2019-11-21 09:00:00 5.1 0 Calma 6 Noroeste 2.6 -- -- 100
2019-11-21 08:00:00 4 3 Noroeste 6 Noroeste 0 -- -- 100
2019-11-21 07:00:00 4.5 2 Noroeste 4 Noroeste 0 -- -- 100
2019-11-21 06:00:00 6.3 2 Sur 5 Sudoeste 0 -- -- 99
2019-11-21 05:00:00 7 0 Calma 7 Noroeste 0 -- -- 100
2019-11-21 04:00:00 7 0 Calma 10 Noroeste 0 -- -- 100
2019-11-21 03:00:00 6.9 3 Sur 10 Oeste 6.2 -- -- 99
2019-11-21 02:00:00 7.1 5 Oeste 20 Oeste 2.6 -- -- 99
2019-11-21 01:00:00 7.1 6 Sudoeste 13 Sur 1.4 -- -- 100
2019-11-21 00:00:00 6.4 2 Noroeste 5 Noroeste 0 -- -- 99
2019-11-20 23:00:00 6.4 2 Noroeste 13 Sudoeste 0 -- -- 98
2019-11-20 22:00:00 7.5 6 Sudoeste 17 Sudoeste 1.4 -- -- 99
2019-11-20 21:00:00 7.1 3 Oeste 19 Oeste 1.6 -- -- 98
2019-11-20 20:00:00 7.3 4 Oeste 12 Sur 1.8 -- -- 98
2019-11-20 19:00:00 7.2 2 Noroeste 12 Sudeste 0.2 -- -- 97
2019-11-20 18:00:00 7.3 4 Sur 13 Sudoeste 0 -- -- 96
2019-11-20 17:00:00 7.2 4 Sur 12 Sur 2.4 -- -- 97
2019-11-20 16:00:00 7.6 4 Noroeste 16 Sur 0 -- -- 94
2019-11-20 15:00:00 7 4 Sur 23 Sur 1.8 -- -- 97
2019-11-20 14:00:00 7.5 8 Sur 25 Sudoeste 2 -- -- 97
2019-11-20 13:00:00 8 5 Sudoeste 19 Sur 0.2 -- -- 98
2019-11-20 12:00:00 7.5 2 Noroeste 10 Oeste 0 -- -- 100
2019-11-20 11:00:00 6.4 0 Calma 8 Noroeste 0 -- -- 100
2019-11-20 10:00:00 3.2 3 Noroeste 6 Norte 0 -- -- 100
2019-11-20 09:00:00 2.4 3 Noroeste 6 Noroeste 0 -- -- 100
2019-11-20 08:00:00 2.2 4 Noroeste 5 Noroeste 0 -- -- 100
2019-11-20 07:00:00 2.9 4 Noroeste 7 Noroeste 0 -- -- 100
2019-11-20 06:00:00 3.6 2 Norte 5 Nordeste 0 -- -- 100
2019-11-20 05:00:00 4 0 Calma 4 Nordeste 0 -- -- 100
2019-11-20 04:00:00 5 0 Calma 4 Noroeste 0 -- -- 100
2019-11-20 03:00:00 5.6 0 Calma 2 Este 0 -- -- 100
2019-11-20 02:00:00 6.8 0 Calma 11 Sudoeste 0 -- -- 99
2019-11-20 01:00:00 7.5 3 Sur 8 Sudoeste 0 -- -- 99
2019-11-20 00:00:00 7.9 0 Calma 11 Sudoeste 0 -- -- 99
2019-11-19 23:00:00 8.3 6 Sur 15 Sur 0 -- -- 99
2019-11-19 22:00:00 8.4 5 Sur 15 Sudoeste 0 -- -- 99
2019-11-19 21:00:00 8.3 5 Sur 12 Sur 0.4 -- -- 99
2019-11-19 20:00:00 8.1 0 Calma 8 Sudoeste 1.6 -- -- 99
2019-11-19 19:00:00 8.1 4 Sudoeste 14 Sudoeste 1.6 -- -- 98
2019-11-19 18:00:00 8.2 5 Sudoeste 17 Sudoeste 2.4 -- -- 98
2019-11-19 17:00:00 8.4 4 Sudoeste 13 Sudoeste 2.2 -- -- 98
2019-11-19 16:00:00 8.5 4 Sudoeste 18 Sudoeste 2.8 -- -- 97
2019-11-19 15:00:00 8.5 6 Sudoeste 16 Sur 1.8 -- -- 96
2019-11-19 14:00:00 8.4 3 Sur 15 Sudeste 0.4 -- -- 94
2019-11-19 13:00:00 8.1 4 Sur 14 Sur 0.4 -- -- 93
2019-11-19 12:00:00 8.7 4 Sur 19 Sudeste 0 -- -- 92
2019-11-19 11:00:00 7.9 8 Sur 20 Sudeste 0 -- -- 98
2019-11-19 10:00:00 6.6 4 Sur 13 Sur 0.4 -- -- 100
2019-11-19 09:00:00 5.1 0 Calma 10 Sur 0.4 -- -- 100
2019-11-19 08:00:00 4.5 3 Sudoeste 6 Sudoeste 0 -- -- 100
2019-11-19 07:00:00 3.3 3 Noroeste 6 Noroeste 0 -- -- 100
2019-11-19 06:00:00 2.3 3 Noroeste 8 Norte 0 -- -- 100
2019-11-19 05:00:00 1.7 0 Calma 5 Noroeste 0 -- -- 100
2019-11-19 04:00:00 1.7 4 Noroeste 5 Noroeste 0 -- -- 100
2019-11-19 03:00:00 1.8 2 Noroeste 6 Noroeste 0 -- -- 100
2019-11-19 02:00:00 1.8 3 Noroeste 6 Noroeste 0 -- -- 99
2019-11-19 01:00:00 1.9 3 Noroeste 8 Noroeste 0 -- -- 99
2019-11-19 00:00:00 1.8 3 Noroeste 6 Noroeste 0 -- -- 99
2019-11-18 23:00:00 1.7 3 Norte 7 Nordeste 0 -- -- 98
2019-11-18 22:00:00 3 2 Noroeste 10 Nordeste 0 -- -- 96
2019-11-18 21:00:00 4.1 2 Nordeste 6 Nordeste 0 -- -- 97
2019-11-18 20:00:00 5.5 4 Norte 9 Norte 0 -- -- 95
2019-11-18 19:00:00 7.1 0 Calma 3 Sudeste 0 -- -- 91
2019-11-18 18:00:00 8.5 3 Norte 5 Nordeste 0 -- -- 87
2019-11-18 17:00:00 10.1 2 Este 10 Norte 0 -- -- 79
2019-11-18 16:00:00 11.2 6 Norte 17 Noroeste 0 -- -- 72
2019-11-18 15:00:00 11 4 Norte 17 Noroeste 0 -- -- 75
2019-11-18 14:00:00 10.8 7 Norte 18 Noroeste 0 -- -- 79
2019-11-18 13:00:00 9.3 3 Nordeste 10 Nordeste 0 -- -- 83
2019-11-18 12:00:00 8.9 3 Este 10 Nordeste 0 -- -- 99
2019-11-18 11:00:00 5.3 2 Norte 8 Norte 0 -- -- 100
2019-11-18 10:00:00 3.2 0 Calma 4 Sudoeste 0 -- -- 100
2019-11-18 09:00:00 2.8 0 Calma 6 Este 0.2 -- -- 100
2019-11-18 08:00:00 2.3 4 Sur 7 Sudeste 0 -- -- 99
2019-11-18 07:00:00 3.1 3 Norte 6 Norte 0 -- -- 100
2019-11-18 06:00:00 3.5 2 Norte 8 Nordeste 0 -- -- 100
2019-11-18 05:00:00 3 2 Este 8 Este 0 -- -- 99
2019-11-18 04:00:00 4 0 Calma 6 Norte 0 -- -- 98
2019-11-18 03:00:00 4.2 3 Este 6 Noroeste 0.2 -- -- 98
2019-11-18 02:00:00 5.1 3 Nordeste 8 Norte 0 -- -- 96
2019-11-18 01:00:00 6.2 4 Norte 13 Noroeste 0 -- -- 97
2019-11-18 00:00:00 6.1 0 Calma 6 Norte 0 -- -- 96
2019-11-17 23:00:00 7.1 4 Nordeste 10 Norte 0 -- -- 97
2019-11-17 22:00:00 7.4 0 Calma 12 Noroeste 0.6 -- -- 97
2019-11-17 21:00:00 7.4 2 Sur 9 Noroeste 0 -- -- 97
2019-11-17 20:00:00 7.3 0 Calma 0 Calma 1 -- -- 96
2019-11-17 19:00:00 7.7 0 Calma 15 Noroeste 0 -- -- 92
2019-11-17 18:00:00 8.3 2 Norte 15 Noroeste 0 -- -- 89
2019-11-17 17:00:00 9.5 3 Noroeste 19 Norte 0 -- -- 83
2019-11-17 16:00:00 9.2 6 Norte 26 Norte 0 -- -- 84
2019-11-17 15:00:00 10.8 14 Noroeste 23 Noroeste 0 -- -- 81
2019-11-17 14:00:00 9.8 9 Noroeste 26 Noroeste 0 -- -- 89
2019-11-17 13:00:00 9.7 9 Noroeste 15 Noroeste 0 -- -- 96
2019-11-17 12:00:00 9.2 6 Noroeste 14 Norte 0 -- -- 99
2019-11-17 11:00:00 9.1 8 Noroeste 21 Oeste 0 -- -- 100
2019-11-17 10:00:00 8.9 8 Noroeste 19 Noroeste 0.2 -- -- 100
2019-11-17 09:00:00 8.6 9 Noroeste 17 Noroeste 1.4 -- -- 100
2019-11-17 08:00:00 7.8 0 Calma 4 Sudoeste 1.6 -- -- 100
2019-11-17 07:00:00 7.9 3 Sudoeste 9 Sudoeste 2.6 -- -- 100
2019-11-17 06:00:00 7.9 4 Sudoeste 9 Sudoeste 0.4 -- -- 100
2019-11-17 05:00:00 7.5 2 Noroeste 6 Noroeste 0.4 -- -- 100
2019-11-17 04:00:00 7.4 0 Calma 9 Sudoeste 0.4 -- -- 100
2019-11-17 03:00:00 7.2 0 Calma 5 Sudoeste 0 -- -- 99
2019-11-17 02:00:00 7 3 Noroeste 5 Sudoeste 0.2 -- -- 99
2019-11-17 01:00:00 7 0 Calma 3 Noroeste 0 -- -- 98
2019-11-17 00:00:00 7.1 0 Calma 5 Sudoeste 0 -- -- 98
2019-11-16 23:00:00 7.1 0 Calma 9 Sudoeste 0.2 -- -- 96
2019-11-16 22:00:00 7 3 Sudoeste 11 Sur 0 -- -- 96
2019-11-16 21:00:00 6.8 5 Sur 12 Sur 0.2 -- -- 96
2019-11-16 20:00:00 7.1 4 Sur 10 Sur 0 -- -- 94
2019-11-16 19:00:00 7.4 3 Sur 11 Sur 0 -- -- 93
2019-11-16 18:00:00 7.8 4 Sur 10 Sudoeste 0 -- -- 92
2019-11-16 17:00:00 8.1 3 Oeste 10 Oeste 0 -- -- 89
2019-11-16 16:00:00 8.1 4 Sudoeste 13 Sudoeste 0 -- -- 90
2019-11-16 15:00:00 7.8 6 Oeste 14 Oeste 0.2 -- -- 89
2019-11-16 14:00:00 8.2 6 Oeste 15 Sudoeste 0 -- -- 87
2019-11-16 13:00:00 7.9 4 Sudoeste 9 Sudoeste 0 -- -- 98
2019-11-16 12:00:00 6.4 0 Calma 5 Sudoeste 0 -- -- 100
2019-11-16 11:00:00 5.1 0 Calma 3 Noroeste 0 -- -- 100
2019-11-16 10:00:00 3 0 Calma 6 Norte 0 -- -- 100
2019-11-16 09:00:00 2.1 2 Este 4 Este 0 -- -- 100
2019-11-16 08:00:00 2.1 0 Calma 3 Noroeste 0 -- -- 100
2019-11-16 07:00:00 2.6 0 Calma 3 Este 0 -- -- 100
2019-11-16 06:00:00 2.4 0 Calma 8 Noroeste 0 -- -- 100
2019-11-16 05:00:00 2.5 3 Sudeste 6 Sur 0 -- -- 99
2019-11-16 04:00:00 2.7 2 Noroeste 5 Norte 0 -- -- 99
2019-11-16 03:00:00 2.9 4 Este 8 Este 0 -- -- 99
2019-11-16 02:00:00 2.6 3 Nordeste 9 Nordeste 0 -- -- 100
2019-11-16 01:00:00 2.3 0 Calma 4 Este 0 -- -- 98
2019-11-16 00:00:00 2.7 0 Calma 8 Este 0.2 -- -- 97
2019-11-15 23:00:00 3.4 5 Nordeste 13 Nordeste 0.8 -- -- 97
2019-11-15 22:00:00 3.2 0 Calma 10 Este 0.2 -- -- 96
2019-11-15 21:00:00 3.6 4 Norte 15 Noroeste 1.4 -- -- 97
2019-11-15 20:00:00 3.2 2 Norte 13 Nordeste 0 -- -- 96
2019-11-15 19:00:00 3.1 0 Calma 9 Norte 0.2 -- -- 94
2019-11-15 18:00:00 4 3 Nordeste 16 Noroeste 0.2 -- -- 94
2019-11-15 17:00:00 4.4 12 Noroeste 24 Noroeste 2 -- -- 93
2019-11-15 16:00:00 5.7 11 Noroeste 41 Noroeste 0.8 -- -- 91
2019-11-15 15:00:00 7.3 15 Noroeste 36 Norte 0.2 -- -- 82
2019-11-15 14:00:00 7.9 17 Noroeste 31 Noroeste 0 -- -- 77
2019-11-15 13:00:00 6.9 14 Noroeste 37 Norte 0 -- -- 83
2019-11-15 12:00:00 6.6 17 Noroeste 32 Noroeste 0 -- -- 82
2019-11-15 11:00:00 5.2 5 Noroeste 12 Norte 0.2 -- -- 92
2019-11-15 10:00:00 3.3 3 Norte 10 Noroeste 0 -- -- 98
2019-11-15 09:00:00 2.7 4 Sur 18 Norte 0 -- -- 97
2019-11-15 08:00:00 1.8 0 Calma 6 Noroeste 0.2 -- -- 97
2019-11-15 07:00:00 1.6 0 Calma 6 Norte 0 -- -- 97
2019-11-15 06:00:00 2.6 0 Calma 6 Este 0 -- -- 94
2019-11-15 05:00:00 4 3 Norte 13 Norte 0 -- -- 91
2019-11-15 04:00:00 3.6 4 Nordeste 21 Norte 0 -- -- 92
2019-11-15 03:00:00 3.7 6 Nordeste 42 Noroeste 0.2 -- -- 92
2019-11-15 02:00:00 2.9 0 Calma 15 Norte 0 -- -- 90
2019-11-15 01:00:00 4.1 8 Norte 41 Norte 0.2 -- -- 89
2019-11-15 00:00:00 4.1 2 Norte 10 Noroeste 0 -- -- 89
2019-11-14 23:00:00 4.1 0 Calma 19 Noroeste 0 -- -- 89
2019-11-14 22:00:00 5.2 9 Norte 26 Noroeste 0 -- -- 86
2019-11-14 21:00:00 5.6 6 Norte 23 Noroeste 0 -- -- 87
2019-11-14 20:00:00 5.8 7 Norte 40 Noroeste 1 -- -- 90
2019-11-14 19:00:00 6.6 7 Noroeste 31 Noroeste 0.6 -- -- 88
2019-11-14 18:00:00 7.5 13 Noroeste 37 Noroeste 0.2 -- -- 85
2019-11-14 17:00:00 8.5 18 Noroeste 44 Noroeste 0 -- -- 81
2019-11-14 16:00:00 8.1 23 Noroeste 55 Noroeste 0.4 -- -- 86
2019-11-14 15:00:00 7.9 24 Noroeste 55 Norte 1.6 -- -- 92
2019-11-14 14:00:00 8 19 Noroeste 68 Noroeste 1.2 -- -- 91
2019-11-14 13:00:00 7.6 19 Noroeste 58 Noroeste 2.8 -- -- 94
2019-11-14 12:00:00 8 26 Noroeste 54 Oeste 1.6 -- -- 94
2019-11-14 11:00:00 6 10 Oeste 21 Sudoeste 0.4 -- -- 97
2019-11-14 10:00:00 5.1 6 Sur 18 Sudoeste 0.8 -- -- 96
2019-11-14 09:00:00 4.8 4 Sudoeste 29 Oeste 2.2 -- -- 95
2019-11-14 08:00:00 4.5 2 Sudeste 15 Oeste 0.2 -- -- 93
2019-11-14 07:00:00 5.2 14 Noroeste 49 Noroeste 1 -- -- 92
2019-11-14 06:00:00 5.8 12 Oeste 31 Oeste 0.2 -- -- 95
2019-11-14 05:00:00 5.4 3 Sur 6 Sur 0 -- -- 96
2019-11-14 04:00:00 5.8 4 Oeste 23 Noroeste 0 -- -- 92
2019-11-14 03:00:00 6.1 12 Noroeste 37 Noroeste 0.6 -- -- 92
2019-11-14 02:00:00 7.4 16 Noroeste 40 Noroeste 0 -- -- 93
2019-11-14 01:00:00 7.9 14 Noroeste 31 Noroeste 1 -- -- 95
2019-11-14 00:00:00 8.6 24 Noroeste 50 Noroeste 0.4 -- -- 96
2019-11-13 23:00:00 9.2 21 Oeste 43 Oeste 6 -- -- 97
2019-11-13 22:00:00 9.6 10 Sudoeste 27 Sudoeste 1.2 -- -- 98
2019-11-13 21:00:00 9.3 6 Sudoeste 17 Oeste 0 -- -- 98
2019-11-13 20:00:00 9.1 7 Sudoeste 26 Sudoeste 1 -- -- 97
2019-11-13 19:00:00 9.4 8 Oeste 20 Oeste 0.2 -- -- 95
2019-11-13 18:00:00 9.7 7 Sudoeste 29 Oeste 0.2 -- -- 93
2019-11-13 17:00:00 11.1 10 Oeste 31 Noroeste 0 -- -- 84
2019-11-13 16:00:00 12.5 11 Oeste 23 Oeste 0 -- -- 80
2019-11-13 15:00:00 12.2 8 Oeste 14 Oeste 0 -- -- 84
2019-11-13 14:00:00 11.1 4 Noroeste 20 Noroeste 0 -- -- 90
2019-11-13 13:00:00 11.7 10 Noroeste 22 Noroeste 0 -- -- 91
2019-11-13 12:00:00 11.2 6 Norte 19 Norte 0 -- -- 95
2019-11-13 11:00:00 11.4 13 Noroeste 21 Noroeste 0 -- -- 96
2019-11-13 10:00:00 10.4 0 Calma 11 Noroeste 0 -- -- 100
2019-11-13 09:00:00 10 5 Noroeste 14 Noroeste 0 -- -- 100
2019-11-13 08:00:00 9.9 2 Norte 8 Norte 0 -- -- 100
2019-11-13 07:00:00 10.1 3 Norte 10 Noroeste 0 -- -- 99
2019-11-13 06:00:00 10.5 4 Nordeste 13 Nordeste 0 -- -- 99
2019-11-13 05:00:00 11.5 5 Norte 27 Noroeste 1.4 -- -- 99
2019-11-13 04:00:00 13.3 6 Noroeste 27 Oeste 1.4 -- -- 100
2019-11-13 03:00:00 13.4 15 Noroeste 35 Noroeste 2.6 -- -- 100
2019-11-13 02:00:00 13.6 17 Noroeste 43 Noroeste 3.4 -- -- 100
2019-11-13 01:00:00 13.9 21 Noroeste 39 Noroeste 1.8 -- -- 100
2019-11-13 00:00:00 13.9 17 Oeste 40 Oeste 4.6 -- -- 100
2019-11-12 23:00:00 13.7 17 Oeste 39 Noroeste 8.4 -- -- 100
2019-11-12 22:00:00 13.6 15 Oeste 36 Oeste 7.8 -- -- 100
2019-11-12 21:00:00 13.5 15 Oeste 39 Oeste 7.4 -- -- 100
2019-11-12 20:00:00 13.3 16 Oeste 41 Oeste 10.2 -- -- 100
2019-11-12 19:00:00 13 15 Oeste 36 Oeste 10.2 -- -- 100
2019-11-12 18:00:00 12.2 10 Sudoeste 26 Oeste 13.2 -- -- 100
2019-11-12 17:00:00 10.7 4 Oeste 13 Sudoeste 9.6 -- -- 100
2019-11-12 16:00:00 9.8 5 Sudoeste 13 Sudoeste 7.4 -- -- 100
2019-11-12 15:00:00 9.2 5 Sudoeste 14 Sudoeste 3.2 -- -- 100
2019-11-12 14:00:00 8.9 6 Sudoeste 20 Sudoeste 1.6 -- -- 100
2019-11-12 13:00:00 8.9 9 Sudoeste 21 Sudoeste 0.4 -- -- 100
2019-11-12 12:00:00 8.4 6 Sudoeste 18 Sudoeste 0.4 -- -- 100
2019-11-12 11:00:00 7.7 4 Sudoeste 9 Sudoeste 1.4 -- -- 100
2019-11-12 10:00:00 7.3 4 Sudoeste 6 Sudoeste 0.2 -- -- 100
2019-11-12 09:00:00 6.9 2 Nordeste 6 Este 0.2 -- -- 100
2019-11-12 08:00:00 6.5 0 Calma 4 Sur 0 -- -- 100
2019-11-12 07:00:00 6.3 0 Calma 5 Noroeste 0 -- -- 100
2019-11-12 06:00:00 5.9 3 Noroeste 6 Noroeste 0 -- -- 100
2019-11-12 05:00:00 5.6 0 Calma 6 Norte 0 -- -- 100
2019-11-12 04:00:00 5.3 0 Calma 5 Norte 0 -- -- 100
2019-11-12 03:00:00 5.1 3 Noroeste 5 Noroeste 0 -- -- 100
2019-11-12 02:00:00 4.7 2 Norte 7 Norte 0 -- -- 99
2019-11-12 01:00:00 5.3 2 Nordeste 6 Norte 0 -- -- 98
2019-11-12 00:00:00 5.8 0 Calma 6 Norte 0 -- -- 98